Time;durP1;ratioP1;P1;durP2;ratioP2;P2;SDS_P1;SDS_P2;PMS_P1;PMS_P2;Temp;Humidity;BMP_temperature;BMP_pressure;BME280_temperature;BME280_humidity;BME280_pressure;Samples;Min_cycle;Max_cycle;Signal;HPM_P1;HPM_P2
2022/10/31 00:02:03;;;;;;;35.67;33.40;;;;;;;17.04;64.49;101951.41;5034511;28;20069;-71
2022/10/31 00:04:28;;;;;;;37.90;35.15;;;;;;;17.02;64.70;101948.09;5036332;28;20029;-69
2022/10/31 00:06:54;;;;;;;35.90;33.20;;;;;;;17.02;64.66;101957.13;5034925;28;20036;-70
2022/10/31 00:09:19;;;;;;;35.88;33.30;;;;;;;17.01;64.88;101960.09;5035831;28;20057;-71
2022/10/31 00:11:44;;;;;;;35.95;33.60;;;;;;;16.98;64.66;101958.69;5034260;28;20036;-73
2022/10/31 00:14:10;;;;;;;34.95;32.63;;;;;;;16.99;64.58;101968.56;5034611;28;20378;-71
2022/10/31 00:16:35;;;;;;;33.88;31.27;;;;;;;16.98;64.29;101971.53;5034915;28;20030;-71
2022/10/31 00:19:03;;;;;;;36.67;33.95;;;;;;;16.96;64.36;101966.34;5034666;28;20061;-71
2022/10/31 00:21:30;;;;;;;35.63;33.05;;;;;;;16.97;64.57;101969.88;5035244;28;20087;-70
2022/10/31 00:23:57;;;;;;;36.75;33.97;;;;;;;16.96;64.91;101968.22;5034122;28;20440;-72
2022/10/31 00:26:22;;;;;;;37.78;35.13;;;;;;;16.95;64.50;101970.13;5035356;28;20111;-73
2022/10/31 00:28:48;;;;;;;35.97;33.50;;;;;;;16.93;64.76;101964.09;5035669;28;20057;-71
2022/10/31 00:31:14;;;;;;;35.47;33.25;;;;;;;16.92;64.62;101964.38;5035181;28;20463;-73
2022/10/31 00:33:40;;;;;;;33.92;31.83;;;;;;;16.91;64.41;101959.97;5035858;28;20446;-70
2022/10/31 00:36:07;;;;;;;36.08;33.22;;;;;;;16.90;64.28;101955.59;5035094;28;20034;-70
2022/10/31 00:38:33;;;;;;;36.58;33.55;;;;;;;16.89;64.43;101964.88;5035186;28;20458;-68
2022/10/31 00:40:58;;;;;;;35.20;32.65;;;;;;;16.87;64.56;101963.22;5035264;28;20044;-72
2022/10/31 00:43:24;;;;;;;35.65;33.25;;;;;;;16.89;64.42;101964.88;5035137;28;20041;-70
2022/10/31 00:45:49;;;;;;;36.63;34.13;;;;;;;16.86;64.60;101953.41;5050723;28;20033;-70
2022/10/31 00:48:15;;;;;;;36.22;33.15;;;;;;;16.85;64.49;101950.91;5035053;28;20029;-70
2022/10/31 00:50:41;;;;;;;35.28;32.97;;;;;;;16.84;64.62;101952.81;5033478;28;20053;-73
2022/10/31 00:53:06;;;;;;;34.80;32.53;;;;;;;16.84;64.49;101952.00;5049989;28;20032;-69
2022/10/31 00:55:32;;;;;;;36.60;34.20;;;;;;;16.83;64.79;101933.97;5034641;28;20068;-69
2022/10/31 00:57:57;;;;;;;33.22;31.02;;;;;;;16.82;64.44;101937.78;5050720;28;20458;-69
2022/10/31 01:00:22;;;;;;;35.38;33.08;;;;;;;16.81;64.66;101934.25;5034811;28;20034;-70
2022/10/31 01:02:48;;;;;;;34.08;32.00;;;;;;;16.80;64.75;101924.38;5033331;28;20064;-73
2022/10/31 01:05:14;;;;;;;34.35;32.30;;;;;;;16.79;64.39;101921.94;5034798;28;20116;-70
2022/10/31 01:07:41;;;;;;;35.35;32.75;;;;;;;16.78;64.24;101934.75;5034971;28;20025;-68
2022/10/31 01:10:07;;;;;;;36.78;34.35;;;;;;;16.76;64.49;101925.97;5034615;28;20021;-69
2022/10/31 01:12:44;;;;;;;35.75;33.08;;;;;;;16.76;64.77;101922.41;5034841;28;20533;-70
2022/10/31 01:15:12;;;;;;;35.85;33.45;;;;;;;16.75;64.81;101923.47;5034964;28;20036;-69
2022/10/31 01:17:38;;;;;;;33.67;31.25;;;;;;;16.73;64.71;101929.22;5035066;28;20058;-71
2022/10/31 01:20:05;;;;;;;34.22;31.90;;;;;;;16.72;64.80;101941.19;5034581;28;20112;-70
2022/10/31 01:22:30;;;;;;;34.80;32.55;;;;;;;16.70;64.50;101935.16;5034855;28;20033;-72
2022/10/31 01:24:56;;;;;;;34.03;32.03;;;;;;;16.70;64.85;101948.78;5034699;28;20044;-72
2022/10/31 01:27:21;;;;;;;34.08;31.67;;;;;;;16.69;64.58;101941.69;5034337;28;20374;-75
2022/10/31 01:29:47;;;;;;;34.50;32.38;;;;;;;16.68;64.52;101948.22;5032928;28;20115;-72
2022/10/31 01:32:12;;;;;;;34.65;32.22;;;;;;;16.69;64.32;101938.16;5032797;28;20037;-70
2022/10/31 01:34:37;;;;;;;35.50;33.28;;;;;;;16.67;64.61;101943.84;5034150;28;20460;-72
2022/10/31 01:37:03;;;;;;;33.80;31.70;;;;;;;16.65;64.23;101935.91;5033056;28;20044;-71
2022/10/31 01:39:28;;;;;;;34.67;32.17;;;;;;;16.64;64.27;101937.00;5033629;28;20056;-71
2022/10/31 01:41:54;;;;;;;33.35;31.27;;;;;;;16.63;64.44;101935.38;5032664;28;20044;-70
2022/10/31 01:44:19;;;;;;;35.97;33.08;;;;;;;16.62;64.45;101930.16;5032720;28;20125;-71
2022/10/31 01:46:50;;;;;;;34.40;32.22;;;;;;;16.62;64.54;101935.59;5033215;28;20108;-69
2022/10/31 01:49:54;;;;;;;34.60;32.60;;;;;;;16.61;64.45;101932.06;5033930;28;20030;-70
2022/10/31 01:52:26;;;;;;;34.22;31.92;;;;;;;16.58;64.63;101929.84;5034526;28;20026;-70
2022/10/31 01:54:56;;;;;;;34.60;32.22;;;;;;;16.57;64.69;101938.28;5034475;28;20064;-71
2022/10/31 01:57:22;;;;;;;33.47;31.23;;;;;;;16.56;64.18;101933.91;5033883;28;20025;-71
2022/10/31 01:59:51;;;;;;;34.58;32.33;;;;;;;16.55;64.43;101927.59;5033758;28;20029;-70
2022/10/31 02:02:18;;;;;;;36.25;33.95;;;;;;;16.54;64.53;101919.69;5033675;28;20033;-72
2022/10/31 02:04:45;;;;;;;35.40;33.08;;;;;;;16.52;64.71;101919.94;5033934;28;20530;-70
2022/10/31 02:07:16;;;;;;;36.00;33.28;;;;;;;16.52;64.49;101919.94;5032583;28;20037;-71
2022/10/31 02:09:44;;;;;;;35.95;33.55;;;;;;;16.51;64.55;101914.75;5033773;28;20113;-70
2022/10/31 02:12:10;;;;;;;33.75;31.73;;;;;;;16.50;64.33;101913.09;5033369;28;20029;-70
2022/10/31 02:14:37;;;;;;;33.63;31.55;;;;;;;16.48;64.20;101910.63;5033508;28;20029;-70
2022/10/31 02:17:03;;;;;;;33.53;31.38;;;;;;;16.47;64.53;101911.69;5032395;28;20426;-70
2022/10/31 02:19:54;;;;;;;34.63;32.40;;;;;;;16.48;64.36;101920.69;5032372;28;20113;-72
2022/10/31 02:22:27;;;;;;;32.60;30.27;;;;;;;16.46;64.04;101922.88;5034088;28;20412;-69
2022/10/31 02:25:24;;;;;;;33.28;31.33;;;;;;;16.42;64.43;101928.81;5049070;28;20029;-72
2022/10/31 02:28:10;;;;;;;33.55;31.30;;;;;;;16.41;64.22;101920.91;5033425;28;20018;-69
2022/10/31 02:30:46;;;;;;;33.45;31.38;;;;;;;16.39;64.11;101918.41;5032903;28;20054;-71
2022/10/31 02:33:25;;;;;;;32.15;30.30;;;;;;;16.39;64.22;101914.88;5032383;28;20060;-70
2022/10/31 02:36:04;;;;;;;34.00;31.75;;;;;;;16.38;64.34;101908.59;5032579;28;20033;-69
2022/10/31 02:38:42;;;;;;;33.42;31.42;;;;;;;16.37;64.02;101917.00;5033648;28;20022;-71
2022/10/31 02:41:19;;;;;;;33.42;31.33;;;;;;;16.36;64.06;101920.84;5032159;28;20084;-71
2022/10/31 02:44:09;;;;;;;34.30;31.70;;;;;;;16.35;64.27;101914.53;5033253;28;20091;-72
2022/10/31 02:46:44;;;;;;;33.45;31.13;;;;;;;16.33;64.35;101913.97;5031983;28;20040;-70
2022/10/31 02:49:18;;;;;;;33.78;31.55;;;;;;;16.31;63.97;101913.41;5033502;28;20461;-72
2022/10/31 02:51:45;;;;;;;33.83;31.67;;;;;;;16.31;64.16;101913.41;5051226;28;20108;-71
2022/10/31 02:54:24;;;;;;;33.47;31.35;;;;;;;16.31;64.08;101904.41;5037136;28;20413;-70
2022/10/31 02:56:53;;;;;;;33.08;30.98;;;;;;;16.28;64.12;101913.91;5037402;28;20036;-70
2022/10/31 02:59:19;;;;;;;33.80;31.38;;;;;;;16.27;64.12;101909.53;5052487;28;20076;-70
2022/10/31 03:02:13;;;;;;;33.60;31.60;;;;;;;16.26;64.14;101912.53;5052273;28;20052;-71
2022/10/31 03:05:08;;;;;;;34.45;32.13;;;;;;;16.23;64.14;101909.22;5036946;28;20029;-70
2022/10/31 03:08:13;;;;;;;32.05;30.02;;;;;;;16.22;63.83;101907.53;5037591;28;20029;-72
2022/10/31 03:10:45;;;;;;;32.45;30.27;;;;;;;16.20;64.07;101911.59;5013970;28;20041;-72
2022/10/31 03:13:21;;;;;;;32.95;31.02;;;;;;;16.19;63.89;101910.78;5036976;28;20083;-70
2022/10/31 03:15:51;;;;;;;33.50;31.10;;;;;;;16.18;63.94;101906.41;5037232;28;20037;-68
2022/10/31 03:18:39;;;;;;;33.72;31.67;;;;;;;16.17;64.17;101910.19;5052469;28;20037;-72
2022/10/31 03:21:06;;;;;;;31.47;29.37;;;;;;;16.14;63.87;101908.00;5051841;28;20056;-69
2022/10/31 03:23:36;;;;;;;31.75;29.73;;;;;;;16.13;64.06;101909.06;5036738;28;20083;-72
2022/10/31 03:26:04;;;;;;;33.10;31.00;;;;;;;16.12;64.03;101912.84;5037155;28;20026;-69
2022/10/31 03:28:36;;;;;;;33.17;31.08;;;;;;;16.11;64.00;101911.22;5036612;28;20057;-70
2022/10/31 03:31:04;;;;;;;30.60;28.80;;;;;;;16.08;64.15;101911.72;5034875;28;20103;-70
2022/10/31 03:33:34;;;;;;;32.35;30.15;;;;;;;16.08;63.95;101925.38;5036619;28;20030;-71
2022/10/31 03:36:04;;;;;;;31.42;29.55;;;;;;;16.07;63.72;101922.88;5036687;28;20026;-70
2022/10/31 03:38:31;;;;;;;32.10;29.95;;;;;;;16.05;63.98;101928.59;5035347;28;20041;-69
2022/10/31 03:41:00;;;;;;;31.52;29.42;;;;;;;16.05;63.96;101919.56;5036594;28;20052;-70
2022/10/31 03:43:32;;;;;;;31.55;29.65;;;;;;;16.03;63.93;101917.13;5036810;28;20362;-70
2022/10/31 03:45:58;;;;;;;35.65;33.28;;;;;;;16.01;64.08;101914.63;5036499;28;20030;-70
2022/10/31 03:48:24;;;;;;;31.98;29.80;;;;;;;16.00;63.84;101918.44;5036533;28;20034;-69
2022/10/31 03:50:52;;;;;;;32.15;30.05;;;;;;;15.99;64.18;101916.78;5035810;28;20079;-70
2022/10/31 03:53:27;;;;;;;31.38;29.48;;;;;;;15.97;63.69;101910.75;5035903;28;20111;-73
2022/10/31 03:56:00;;;;;;;32.97;30.67;;;;;;;15.96;64.04;101914.56;5036377;28;20026;-73
2022/10/31 03:58:32;;;;;;;31.63;29.73;;;;;;;15.94;64.01;101910.44;5035113;28;20047;-68
2022/10/31 04:01:00;;;;;;;32.60;30.50;;;;;;;15.93;63.65;101916.97;5051333;28;20120;-70
2022/10/31 04:03:30;;;;;;;30.70;28.90;;;;;;;15.91;63.99;101910.94;5035277;28;20029;-69
2022/10/31 04:05:59;;;;;;;33.55;31.17;;;;;;;15.89;64.12;101913.91;5035588;28;20509;-70
2022/10/31 04:08:28;;;;;;;33.55;31.30;;;;;;;15.87;63.82;101918.75;5034604;28;20025;-69
2022/10/31 04:10:55;;;;;;;32.60;30.35;;;;;;;15.87;64.06;101912.50;5036214;28;20036;-69
2022/10/31 04:13:29;;;;;;;30.40;28.33;;;;;;;15.85;64.03;101922.81;5035461;28;20041;-69
2022/10/31 04:15:56;;;;;;;31.98;29.98;;;;;;;15.83;63.71;101917.63;5034669;28;20065;-70
2022/10/31 04:18:24;;;;;;;30.52;28.63;;;;;;;15.81;63.73;101925.22;5035876;28;20458;-70
2022/10/31 04:21:00;;;;;;;36.13;33.67;;;;;;;15.80;63.90;101926.31;5035623;28;20120;-70
2022/10/31 04:23:26;;;;;;;32.75;30.70;;;;;;;15.79;63.57;101927.38;5035323;28;20048;-68
2022/10/31 04:25:52;;;;;;;31.85;29.90;;;;;;;15.78;63.82;101923.00;5035467;28;20408;-70
2022/10/31 04:28:18;;;;;;;30.52;28.65;;;;;;;15.77;63.72;101924.06;5035503;28;20036;-71
2022/10/31 04:30:43;;;;;;;31.45;29.55;;;;;;;15.77;63.91;101924.06;5033944;28;20120;-71
2022/10/31 04:33:08;;;;;;;31.10;29.15;;;;;;;15.74;63.76;101927.28;5034140;28;20041;-70
2022/10/31 04:35:36;;;;;;;31.23;29.27;;;;;;;15.73;63.75;101918.28;5034212;28;20044;-69
2022/10/31 04:38:02;;;;;;;31.85;29.85;;;;;;;15.72;63.82;101923.97;5035234;28;20539;-71
2022/10/31 04:40:27;;;;;;;31.55;29.65;;;;;;;15.71;63.58;101917.72;5035272;28;20049;-73
2022/10/31 04:42:53;;;;;;;31.60;29.70;;;;;;;15.68;63.66;101912.72;5035153;28;20037;-70
2022/10/31 04:45:18;;;;;;;30.67;28.55;;;;;;;15.68;63.58;101917.38;5035501;28;20124;-72
2022/10/31 04:47:43;;;;;;;30.73;28.83;;;;;;;15.67;63.74;101918.41;5035163;28;20076;-71
2022/10/31 04:50:09;;;;;;;32.03;29.38;;;;;;;15.66;63.72;101924.94;5033799;28;20094;-70
2022/10/31 04:52:42;;;;;;;32.45;30.40;;;;;;;15.64;63.50;101919.75;5035588;28;20033;-71
2022/10/31 04:55:08;;;;;;;31.92;29.83;;;;;;;15.62;63.72;101913.72;5035228;28;20112;-72
2022/10/31 04:57:40;;;;;;;30.90;29.13;;;;;;;15.61;63.63;101917.53;5034911;28;20065;-69
2022/10/31 05:00:06;;;;;;;31.38;29.23;;;;;;;15.61;63.83;101911.25;5034841;28;20381;-73
2022/10/31 05:02:31;;;;;;;32.20;30.10;;;;;;;15.58;63.39;101912.56;5034248;28;20037;-70
2022/10/31 05:04:57;;;;;;;30.40;27.67;;;;;;;15.56;63.58;101903.81;5034490;28;20034;-70
2022/10/31 05:07:22;;;;;;;30.85;28.52;;;;;;;15.55;63.59;101903.00;5034773;28;20029;-70
2022/10/31 05:09:48;;;;;;;28.83;26.67;;;;;;;15.54;63.71;101904.06;5033473;28;20045;-70
2022/10/31 05:12:13;;;;;;;28.45;26.75;;;;;;;15.53;63.78;101901.59;5034670;28;20037;-69
2022/10/31 05:14:38;;;;;;;28.60;26.92;;;;;;;15.51;63.56;101893.66;5032916;28;20025;-69
2022/10/31 05:17:04;;;;;;;30.25;28.30;;;;;;;15.50;63.82;101893.94;5034755;28;20040;-70
2022/10/31 05:19:29;;;;;;;30.40;28.25;;;;;;;15.49;63.97;101895.81;5034825;28;20064;-70
2022/10/31 05:21:54;;;;;;;30.15;28.20;;;;;;;15.48;63.75;101893.34;5034430;28;20034;-68
2022/10/31 05:24:21;;;;;;;29.67;27.73;;;;;;;15.46;63.77;101892.75;5033297;28;20382;-70
2022/10/31 05:26:47;;;;;;;29.50;27.50;;;;;;;15.46;63.79;101888.13;5033288;28;20071;-69
2022/10/31 05:29:12;;;;;;;28.75;26.80;;;;;;;15.45;63.52;101891.13;5034281;28;20112;-70
2022/10/31 05:31:38;;;;;;;29.95;28.05;;;;;;;15.42;63.63;101892.44;5034313;28;20461;-71
2022/10/31 05:34:03;;;;;;;29.88;28.08;;;;;;;15.42;63.50;101897.88;5033269;28;20067;-70
2022/10/31 05:36:29;;;;;;;30.33;28.33;;;;;;;15.41;63.70;101884.50;5032979;28;20037;-69
2022/10/31 05:38:54;;;;;;;31.42;29.42;;;;;;;15.40;63.77;101893.75;5034371;28;20035;-75
2022/10/31 05:41:19;;;;;;;29.85;28.08;;;;;;;15.39;64.12;101892.09;5034106;28;20385;-68
2022/10/31 05:43:45;;;;;;;28.77;26.85;;;;;;;15.37;63.76;101900.50;5034587;28;20037;-69
2022/10/31 05:46:11;;;;;;;30.15;28.25;;;;;;;15.36;63.55;101896.13;5033687;28;20029;-70
2022/10/31 05:48:36;;;;;;;29.77;28.00;;;;;;;15.34;63.90;101890.94;5032615;28;20433;-70
2022/10/31 05:51:01;;;;;;;30.90;28.30;;;;;;;15.33;63.76;101883.84;5034379;28;20412;-73
2022/10/31 05:53:26;;;;;;;30.63;28.73;;;;;;;15.32;63.45;101884.06;5033963;28;20038;-70
2022/10/31 05:55:52;;;;;;;31.45;29.15;;;;;;;15.32;63.62;101884.06;5033920;28;20029;-69
2022/10/31 05:58:17;;;;;;;31.60;29.30;;;;;;;15.31;63.72;101882.44;5034156;28;20064;-69
2022/10/31 06:00:42;;;;;;;30.00;28.08;;;;;;;15.30;63.73;101867.19;5033549;28;20037;-71
2022/10/31 06:03:09;;;;;;;32.92;30.60;;;;;;;15.29;63.69;101873.69;5032561;28;20458;-71
2022/10/31 06:05:34;;;;;;;29.63;27.50;;;;;;;15.27;63.51;101873.09;5034465;28;20037;-69
2022/10/31 06:08:00;;;;;;;30.98;28.67;;;;;;;15.26;63.74;101863.31;5033639;28;20080;-71
2022/10/31 06:10:26;;;;;;;31.98;29.63;;;;;;;15.24;63.70;101877.16;5032174;28;20041;-70
2022/10/31 06:12:51;;;;;;;31.35;29.30;;;;;;;15.23;63.67;101872.78;5033651;28;20030;-70
2022/10/31 06:15:17;;;;;;;32.92;30.42;;;;;;;15.23;63.53;101875.50;5032551;28;20385;-72
2022/10/31 06:17:42;;;;;;;29.92;27.92;;;;;;;15.21;63.76;101868.66;5032581;28;20397;-72
2022/10/31 06:20:09;;;;;;;31.75;29.52;;;;;;;15.21;63.64;101872.19;5033513;28;20515;-70
2022/10/31 06:22:34;;;;;;;30.65;28.65;;;;;;;15.20;63.74;101869.75;5033523;28;20029;-70
2022/10/31 06:24:59;;;;;;;30.23;27.98;;;;;;;15.19;63.53;101874.34;5033054;28;20108;-74
2022/10/31 06:27:25;;;;;;;31.60;29.25;;;;;;;15.17;63.54;101876.50;5032138;28;20466;-70
2022/10/31 06:29:51;;;;;;;30.38;28.42;;;;;;;15.16;63.49;101872.13;5032049;28;20133;-69
2022/10/31 06:32:17;;;;;;;31.95;29.85;;;;;;;15.15;63.91;101875.91;5033325;28;20377;-70
2022/10/31 06:34:43;;;;;;;29.95;27.85;;;;;;;15.14;63.84;101869.66;5033898;28;20038;-70
2022/10/31 06:37:10;;;;;;;31.55;29.13;;;;;;;15.14;63.83;101871.53;5033578;28;20034;-72
2022/10/31 06:39:35;;;;;;;30.50;28.40;;;;;;;15.12;63.85;101871.78;5033532;28;20029;-69
2022/10/31 06:42:01;;;;;;;30.23;28.15;;;;;;;15.10;63.86;101868.47;5033846;28;20088;-69
2022/10/31 06:44:26;;;;;;;31.45;29.38;;;;;;;15.10;63.67;101868.47;5033181;28;20446;-72
2022/10/31 06:46:52;;;;;;;30.48;28.30;;;;;;;15.08;63.82;101859.75;5032141;28;20395;-70
2022/10/31 06:49:17;;;;;;;31.90;29.35;;;;;;;15.08;63.77;101865.19;5031914;28;20033;-69
2022/10/31 06:51:43;;;;;;;28.83;26.92;;;;;;;15.07;63.81;101868.97;5032028;28;20033;-70
2022/10/31 06:54:08;;;;;;;30.40;28.33;;;;;;;15.06;63.75;101872.75;5032204;28;20060;-69
2022/10/31 06:56:34;;;;;;;29.55;27.65;;;;;;;15.04;63.99;101874.88;5048544;28;20022;-69
2022/10/31 06:58:59;;;;;;;31.75;29.25;;;;;;;15.04;63.99;101883.06;5033487;28;20095;-70
2022/10/31 07:01:24;;;;;;;30.20;28.08;;;;;;;15.03;63.70;101884.13;5033077;28;20053;-69
2022/10/31 07:03:50;;;;;;;31.25;29.15;;;;;;;15.02;64.22;101882.50;5032433;28;20069;-69
2022/10/31 07:06:15;;;;;;;30.50;28.38;;;;;;;15.02;63.93;101884.38;5033064;28;20453;-68
2022/10/31 07:08:40;;;;;;;30.73;28.42;;;;;;;15.01;63.60;101880.00;5033839;28;20350;-72
2022/10/31 07:11:06;;;;;;;30.23;28.08;;;;;;;15.01;64.12;101874.56;5033288;28;20041;-72
2022/10/31 07:13:34;;;;;;;31.50;29.40;;;;;;;14.99;63.86;101879.41;5033360;28;20069;-71
2022/10/31 07:16:02;;;;;;;28.50;26.63;;;;;;;14.98;64.07;101873.16;5033072;28;20474;-70
2022/10/31 07:18:28;;;;;;;30.17;27.88;;;;;;;14.98;63.91;101875.88;5032859;28;20053;-69
2022/10/31 07:20:53;;;;;;;29.90;27.83;;;;;;;14.98;64.12;101875.06;5032992;28;20037;-69
2022/10/31 07:23:19;;;;;;;31.73;29.25;;;;;;;14.97;64.03;101884.28;5032744;28;20091;-69
2022/10/31 07:25:44;;;;;;;29.60;27.70;;;;;;;14.97;63.79;101882.41;5031610;28;20037;-70
2022/10/31 07:28:10;;;;;;;30.58;28.40;;;;;;;14.96;63.75;101885.34;5032872;28;20026;-73
2022/10/31 07:30:37;;;;;;;30.63;28.33;;;;;;;14.96;63.95;101883.47;5032797;28;20056;-69
2022/10/31 07:33:04;;;;;;;31.30;29.30;;;;;;;14.95;64.18;101887.25;5032921;28;20057;-70
2022/10/31 07:35:30;;;;;;;30.08;28.27;;;;;;;14.96;63.87;101891.63;5032723;28;20073;-69
2022/10/31 07:37:55;;;;;;;31.40;29.33;;;;;;;14.95;63.80;101889.16;5034517;28;20033;-69
2022/10/31 07:40:22;;;;;;;34.60;31.92;;;;;;;14.93;63.80;101890.22;5035376;28;20035;-70
2022/10/31 07:42:50;;;;;;;30.67;28.48;;;;;;;14.92;63.98;101880.41;5036186;28;20036;-70
2022/10/31 07:45:18;;;;;;;30.90;28.65;;;;;;;14.92;64.17;101888.56;5051486;28;20044;-72
2022/10/31 07:47:49;;;;;;;33.42;30.85;;;;;;;14.92;64.13;101882.31;5035600;28;20369;-71
2022/10/31 07:50:26;;;;;;;32.53;29.60;;;;;;;14.92;63.89;101890.47;5035903;28;20048;-69
2022/10/31 07:53:02;;;;;;;29.35;27.08;;;;;;;14.91;64.17;101894.25;5036413;28;20418;-69
2022/10/31 07:55:28;;;;;;;32.78;30.42;;;;;;;14.90;64.15;101895.31;5035842;28;20458;-69
2022/10/31 07:58:04;;;;;;;29.67;27.58;;;;;;;14.90;64.41;101892.59;5035867;28;20045;-70
2022/10/31 08:00:31;;;;;;;31.23;28.08;;;;;;;14.89;64.27;101891.78;5035529;28;20067;-69
2022/10/31 08:02:59;;;;;;;31.25;28.85;;;;;;;14.89;64.38;101886.34;5034557;28;20068;-70
2022/10/31 08:05:24;;;;;;;30.83;28.65;;;;;;;14.88;64.15;101887.41;5035679;28;20041;-70
2022/10/31 08:07:49;;;;;;;33.25;30.83;;;;;;;14.88;64.06;101890.13;5034759;28;20087;-70
2022/10/31 08:10:15;;;;;;;30.73;28.58;;;;;;;14.89;64.20;101888.22;5035559;28;20373;-73
2022/10/31 08:12:40;;;;;;;32.63;30.17;;;;;;;14.89;64.25;101882.78;5018001;28;20037;-70
2022/10/31 08:15:06;;;;;;;31.33;28.83;;;;;;;14.89;64.36;101885.50;5034381;28;20448;-70
2022/10/31 08:17:35;;;;;;;31.60;29.35;;;;;;;14.88;64.24;101881.13;5017450;28;20034;-73
2022/10/31 08:20:01;;;;;;;31.15;28.85;;;;;;;14.88;64.38;101884.69;5035318;28;20091;-69
2022/10/31 08:22:26;;;;;;;34.17;31.38;;;;;;;14.87;64.72;101880.31;5033829;28;20041;-69
2022/10/31 08:24:51;;;;;;;31.52;28.90;;;;;;;14.88;64.46;101881.97;5034934;28;20033;-69
2022/10/31 08:27:17;;;;;;;31.02;28.67;;;;;;;14.89;64.76;101871.91;5035046;28;20034;-74
2022/10/31 08:29:42;;;;;;;32.17;29.63;;;;;;;14.89;64.75;101863.72;5034661;28;20057;-71
2022/10/31 08:32:07;;;;;;;32.75;30.20;;;;;;;14.88;64.83;101856.66;5034213;28;20037;-68
2022/10/31 08:34:33;;;;;;;35.90;32.88;;;;;;;14.89;64.76;101852.84;5035199;28;20037;-69
2022/10/31 08:36:58;;;;;;;33.53;30.83;;;;;;;14.88;64.97;101848.50;5033570;28;20044;-69
2022/10/31 08:39:23;;;;;;;36.15;32.85;;;;;;;14.89;64.97;101833.81;5033618;28;20072;-69
2022/10/31 08:41:50;;;;;;;36.60;33.60;;;;;;;14.89;65.19;101839.25;5033686;28;20384;-69
2022/10/31 08:44:16;;;;;;;34.03;31.40;;;;;;;14.90;65.13;101843.63;5035223;28;20083;-69
2022/10/31 08:46:41;;;;;;;33.47;31.05;;;;;;;14.89;65.15;101861.00;5034858;28;20029;-69
2022/10/31 08:49:07;;;;;;;33.22;30.63;;;;;;;14.89;65.51;101872.75;5034499;28;20136;-69
2022/10/31 08:51:32;;;;;;;37.25;34.17;;;;;;;14.89;65.40;101874.63;5034530;28;20499;-69
2022/10/31 08:53:57;;;;;;;34.65;31.73;;;;;;;14.89;65.31;101872.75;5033507;28;20036;-69
2022/10/31 08:56:23;;;;;;;34.88;31.88;;;;;;;14.89;65.82;101877.34;5034460;28;20030;-69
2022/10/31 08:58:48;;;;;;;36.17;32.90;;;;;;;14.90;65.18;101873.56;5034460;28;20075;-69
2022/10/31 09:01:14;;;;;;;54.15;31.63;;;;;;;14.90;65.44;101863.50;5034377;28;20064;-70
2022/10/31 09:03:39;;;;;;;35.50;32.70;;;;;;;14.90;65.42;101863.50;5033097;28;20069;-72
2022/10/31 09:06:08;;;;;;;31.95;29.65;;;;;;;14.91;65.55;101867.03;5016917;28;20436;-69
2022/10/31 09:08:34;;;;;;;35.35;32.38;;;;;;;14.91;65.53;101861.59;5034209;28;20084;-69
2022/10/31 09:11:00;;;;;;;35.72;32.38;;;;;;;14.91;65.74;101853.44;5032996;28;20030;-74
2022/10/31 09:13:25;;;;;;;38.67;34.70;;;;;;;14.92;65.82;101844.22;5033200;28;20032;-70
2022/10/31 09:15:51;;;;;;;35.40;31.98;;;;;;;14.92;66.17;101836.88;5034356;28;20061;-71
2022/10/31 09:18:19;;;;;;;37.17;33.55;;;;;;;14.93;66.28;101841.25;5034888;28;20032;-71
2022/10/31 09:20:46;;;;;;;37.30;33.70;;;;;;;14.94;66.35;101842.06;5033917;28;20040;-69
2022/10/31 09:23:17;;;;;;;37.13;33.92;;;;;;;14.94;66.59;101823.03;5034023;28;20033;-69
2022/10/31 09:25:43;;;;;;;40.90;36.92;;;;;;;14.95;66.85;101818.44;5033828;28;20056;-70
2022/10/31 09:28:13;;;;;;;39.00;35.20;;;;;;;14.95;66.65;101813.81;5034513;28;20433;-69
2022/10/31 09:30:38;;;;;;;38.70;34.85;;;;;;;14.95;66.99;101827.41;5032442;28;20148;-71
2022/10/31 09:33:06;;;;;;;38.53;35.03;;;;;;;14.96;67.12;101817.34;5016298;28;20456;-70
2022/10/31 09:35:33;;;;;;;35.60;32.45;;;;;;;14.97;66.84;101816.25;5033668;28;20111;-69
2022/10/31 09:38:00;;;;;;;38.33;34.35;;;;;;;14.96;66.87;101807.28;5015878;28;20442;-68
2022/10/31 09:40:38;;;;;;;38.33;34.70;;;;;;;14.96;67.21;101798.28;5032278;28;20041;-70
2022/10/31 09:43:11;;;;;;;39.63;35.93;;;;;;;14.97;67.30;101789.91;5034197;28;20025;-70
2022/10/31 09:45:45;;;;;;;39.78;35.95;;;;;;;14.98;67.28;101790.72;5033498;28;20175;-71
2022/10/31 09:48:20;;;;;;;40.20;36.00;;;;;;;14.97;67.33;101787.19;5031878;28;20075;-69
2022/10/31 09:50:53;;;;;;;38.42;34.47;;;;;;;14.99;67.58;101789.63;5032631;28;20041;-70
2022/10/31 09:53:25;;;;;;;37.83;34.22;;;;;;;15.00;67.34;101785.88;5033478;28;20083;-71
2022/10/31 09:55:51;;;;;;;38.95;34.78;;;;;;;15.00;67.48;101773.06;5032043;28;20039;-69
2022/10/31 09:58:59;;;;;;;39.75;36.08;;;;;;;15.01;68.01;101754.84;5033247;28;20029;-70
2022/10/31 10:01:47;;;;;;;38.10;33.47;;;;;;;15.02;67.77;101737.44;5033015;28;20025;-68
2022/10/31 10:04:31;;;;;;;36.00;32.60;;;;;;;15.02;67.90;101749.16;5011888;28;20406;-71
2022/10/31 10:06:58;;;;;;;39.55;34.97;;;;;;;15.03;68.39;101744.56;5032020;28;20087;-72
2022/10/31 10:09:26;;;;;;;42.50;37.97;;;;;;;15.05;68.71;101747.84;5032572;28;20053;-70
2022/10/31 10:12:15;;;;;;;40.63;36.25;;;;;;;15.04;68.71;101736.13;5031818;28;20025;-70
2022/10/31 10:15:14;;;;;;;50.45;39.58;;;;;;;15.06;69.15;101744.88;5032937;28;20044;-70
2022/10/31 10:17:54;;;;;;;43.83;39.20;;;;;;;15.06;68.82;101725.81;5033063;28;20040;-71
2022/10/31 10:20:23;;;;;;;44.10;38.28;;;;;;;15.07;68.80;101746.53;5048692;28;20063;-70
2022/10/31 10:23:08;;;;;;;47.47;38.35;;;;;;;15.08;69.19;101747.34;5032901;28;20072;-71
2022/10/31 10:25:39;;;;;;;40.78;35.08;;;;;;;15.09;69.10;101751.72;5033012;28;20101;-72
2022/10/31 10:28:16;;;;;;;42.42;37.95;;;;;;;15.11;69.00;101755.00;5031811;28;20044;-70
2022/10/31 10:30:46;;;;;;;38.58;33.17;;;;;;;15.10;69.30;101754.19;5033206;28;20061;-72
2022/10/31 10:33:18;;;;;;;41.72;37.53;;;;;;;15.12;68.96;101765.66;5033471;28;20112;-76
2022/10/31 10:35:46;;;;;;;40.08;35.38;;;;;;;15.13;68.98;101774.63;5032932;28;20441;-71
2022/10/31 10:38:32;;;;;;;39.33;35.25;;;;;;;15.16;69.25;101774.13;5033324;28;20040;-69
2022/10/31 10:41:00;;;;;;;38.75;34.75;;;;;;;15.16;69.10;101765.97;5011749;28;20124;-69
2022/10/31 10:43:35;;;;;;;49.65;40.03;;;;;;;15.18;69.34;101752.94;5032863;28;20037;-70
2022/10/31 10:49:40;;;;;;;41.90;37.25;;;;;;;15.20;69.91;101744.53;5033343;28;20053;-68
2022/10/31 10:52:19;;;;;;;46.10;35.42;;;;;;;15.20;69.41;101737.19;5033264;28;20401;-70
2022/10/31 10:55:10;;;;;;;53.67;40.85;;;;;;;15.21;70.05;101733.41;5033179;28;20032;-69
2022/10/31 10:57:54;;;;;;;38.13;33.85;;;;;;;15.21;69.54;101733.41;5033206;28;20117;-69
2022/10/31 11:00:26;;;;;;;53.67;40.50;;;;;;;15.22;69.71;101737.78;5033180;28;20025;-69
2022/10/31 11:02:53;;;;;;;38.83;35.25;;;;;;;15.23;69.42;101714.91;5032807;28;20025;-70
2022/10/31 11:05:38;;;;;;;51.27;40.20;;;;;;;15.24;70.15;101700.22;5032580;28;20071;-70
2022/10/31 11:08:05;;;;;;;44.35;38.13;;;;;;;15.25;69.65;101685.56;5032104;28;20124;-70
2022/10/31 11:10:32;;;;;;;47.83;38.60;;;;;;;15.26;69.81;101697.25;5031686;28;20474;-69
2022/10/31 11:13:15;;;;;;;48.67;39.13;;;;;;;15.25;69.73;101682.03;5035198;28;20037;-69
2022/10/31 11:15:58;;;;;;;62.13;43.67;;;;;;;15.30;70.29;101671.19;5036638;28;20032;-69
2022/10/31 11:18:30;;;;;;;56.92;43.67;;;;;;;15.30;70.60;101666.56;5051561;28;20413;-69
2022/10/31 11:20:57;;;;;;;60.50;41.80;;;;;;;15.31;70.93;101651.06;5036452;28;20036;-71
2022/10/31 11:23:25;;;;;;;77.63;45.22;;;;;;;15.32;71.33;101650.81;5036396;28;20048;-69